Cuddebackville, New York
Current Conditions -  °F | °C
As of 6:54 AM on Monday 26 Jan 2015 (Local Time) from KMGJ Reporting Station
Overcast Overcast  
Wind Chill:   Ceiling: 6000
Heat Index: 15°   Visibility: 10mi
Dew Point:   Wind: 13mph
Humidity: 54%   Direction: 40°NE
Pressure: 30.02"   Gusts: NA
Location:  41.47°N, 74.59°W
Report Text: KMGJ 261154Z AUTO 04011KT 10SM OVC060 M09/M17 A3002 RMK AO2 SLP170 T10941172 11072 21094 58002 TSNO
Loading
Personal Weather Stations






























Interactive Weather Map New forecast layout! Learn more

10-Day Weather Forecast

Advertisements
Track Severe Weather on mobile